Terminal Aerodrome Forecast
Issued by NWS Duluth, MN

Home | Current Version | Previous Version | Text Only | Print | Product List | Glossary On
Versions: 1 2 3 4 5 6 7 8 9 10 11 12 13 14 15 16 17 18 19 20 21 22 23 24 25 26 27 28 29 30 31 32 33 34
000
FTUS43 KDLH 281200 AAA
TAFDLH
TAF AMD
KDLH 281259Z 2813/2912 12007KT P6SM VCSH SCT020 OVC035
      TEMPO 2813/2817 2SM -SN BR OVC018
     FM290600 VRB04KT 6SM -PLSN OVC018=

USA.gov is the U.S. government's official web portal to all federal, state and local government web resources and services.